Pagina principală
METAR-TAF:

METAR-TAF

Aeroporturi :

Richland, Washington, Statele Unite ale Americii

Latitudine: 46-18-20N, longitudine: 119-18-15W, elevație: 120 m

Observații meteo curente

Raportul a fost făcut în urmă cu 25 de minute, la 20:35 UTC
Vânt 5 kt de la Sud/Sud-vest
Temperatură 19°C
Umiditate 30%
Presiune 1015 hPa
Vizibilitate: 16.1 km
Cer senin

METAR: KRLD 162035Z AUTO 21005KT 10SM CLR 19/01 A2996 RMK AO2 T01890005

Ora: 14:00 (21:00 UTC)


TAF: lipsă

Observații și prognoze meteo pentru peste 4.000 de aeroporturi (rapoarte METAR și TAF).

Stațiile disponibile sunt reprezentate pe hartă prin puncte galbene și roșii.

Țineți indicatorul mouse-ului pe punctul dorit pentru a vedea denumirea stației.

Apoi, faceți clic pentru a vedea observațiile și prognozele meteorologice.

Pentru a schimba harta: Pentru mărire, faceți clic pe butoanele verzi cu cruce neagră; pentru micșorare, pe butonul verde cu o liniuță; pentru hărți învecinate, pe săgețile verzi.


METAR-TAF: